createdAt,value
2018-09-21T00:00:21.323Z,5.12
2018-09-21T00:01:24.679Z,5.80
2018-09-21T00:02:27.999Z,5.28
2018-09-21T00:03:31.327Z,4.92
2018-09-21T00:04:34.655Z,4.90
2018-09-21T00:05:38.095Z,5.00
2018-09-21T00:06:41.510Z,5.60
2018-09-21T00:07:44.824Z,6.58
2018-09-21T00:08:48.179Z,5.37
2018-09-21T00:09:51.532Z,5.20
2018-09-21T00:10:54.860Z,5.50
2018-09-21T00:11:58.167Z,5.30
2018-09-21T00:13:01.487Z,5.33
2018-09-21T00:14:04.851Z,4.92
2018-09-21T00:15:08.221Z,5.30
2018-09-21T00:16:11.547Z,5.50
2018-09-21T00:17:14.913Z,5.10
2018-09-21T00:18:18.299Z,5.50
2018-09-21T00:19:21.624Z,5.40
2018-09-21T00:20:24.974Z,5.33
2018-09-21T00:21:28.303Z,5.10
2018-09-21T00:22:31.628Z,4.80
2018-09-21T00:23:34.951Z,5.00
2018-09-21T00:24:38.329Z,5.75
2018-09-21T00:25:41.672Z,5.92
2018-09-21T00:26:44.995Z,5.40
2018-09-21T00:27:48.386Z,5.50
2018-09-21T00:28:51.706Z,5.60
2018-09-21T00:29:55.059Z,5.35
2018-09-21T00:30:58.405Z,5.17
2018-09-21T00:32:01.733Z,5.03
2018-09-21T00:33:05.047Z,5.55
2018-09-21T00:34:08.368Z,4.85
2018-09-21T00:35:12.328Z,5.60
2018-09-21T00:36:15.658Z,5.33
2018-09-21T00:37:19.027Z,5.45
2018-09-21T00:38:22.343Z,5.87
2018-09-21T00:39:25.676Z,6.30
2018-09-21T00:40:29.011Z,5.33
2018-09-21T00:41:32.331Z,5.85
2018-09-21T00:42:35.681Z,5.47
2018-09-21T00:43:39.012Z,4.92
2018-09-21T00:44:42.347Z,5.40
2018-09-21T00:45:45.674Z,6.08
2018-09-21T00:46:49.060Z,5.30
2018-09-21T00:47:52.395Z,4.53
2018-09-21T00:48:55.699Z,5.67
2018-09-21T00:49:59.003Z,5.55
2018-09-21T00:51:02.307Z,5.40
2018-09-21T00:52:05.655Z,6.25
2018-09-21T00:53:08.971Z,5.85
2018-09-21T00:54:12.267Z,6.67
2018-09-21T00:55:15.627Z,6.08
2018-09-21T00:56:18.943Z,5.75
2018-09-21T00:57:22.282Z,5.40
2018-09-21T00:58:25.591Z,5.45
2018-09-21T00:59:28.898Z,5.70
2018-09-21T01:00:32.198Z,5.00
2018-09-21T01:01:35.499Z,5.72
2018-09-21T01:02:38.847Z,6.00
2018-09-21T01:03:42.174Z,6.45
2018-09-21T01:04:45.609Z,6.20
2018-09-21T01:05:48.931Z,6.35
2018-09-21T01:06:52.235Z,5.50
2018-09-21T01:07:55.578Z,4.87
2018-09-21T01:08:58.887Z,5.87
2018-09-21T01:10:02.222Z,5.67
2018-09-21T01:11:05.527Z,6.40
2018-09-21T01:12:08.870Z,6.53
2018-09-21T01:13:12.224Z,5.70
2018-09-21T01:14:15.522Z,6.17
2018-09-21T01:15:18.920Z,5.90
2018-09-21T01:16:22.236Z,6.17
2018-09-21T01:17:25.571Z,6.25
2018-09-21T01:18:28.874Z,6.58
2018-09-21T01:19:32.181Z,5.85
2018-09-21T01:20:35.484Z,6.00
2018-09-21T01:21:38.835Z,5.65
2018-09-21T01:22:42.176Z,5.70
2018-09-21T01:23:45.512Z,5.08
2018-09-21T01:24:48.833Z,5.62
2018-09-21T01:25:52.152Z,6.25
2018-09-21T01:26:55.499Z,5.45
2018-09-21T01:27:58.834Z,6.50
2018-09-21T01:29:02.177Z,6.10
2018-09-21T01:30:05.681Z,6.28
2018-09-21T01:31:08.993Z,5.90
2018-09-21T01:32:12.443Z,6.15
2018-09-21T01:33:15.763Z,6.10
2018-09-21T01:34:19.108Z,5.83
2018-09-21T01:35:22.473Z,5.65
2018-09-21T01:36:25.803Z,5.97
2018-09-21T01:37:29.170Z,5.45
2018-09-21T01:38:32.479Z,6.70
2018-09-21T01:39:35.818Z,5.60
2018-09-21T01:40:39.106Z,5.47
2018-09-21T01:41:42.446Z,6.92
2018-09-21T01:42:45.796Z,6.35
2018-09-21T01:43:49.163Z,6.35
2018-09-21T01:44:52.475Z,6.22
2018-09-21T01:45:55.776Z,7.30
2018-09-21T01:46:59.100Z,6.22
2018-09-21T01:48:02.442Z,5.45
2018-09-21T01:49:05.830Z,6.47
2018-09-21T01:50:09.140Z,6.25
2018-09-21T01:51:12.477Z,6.70
2018-09-21T01:52:15.894Z,6.90
2018-09-21T01:53:19.230Z,7.30
2018-09-21T01:54:22.542Z,6.90
2018-09-21T01:55:25.895Z,7.33
2018-09-21T01:56:29.213Z,7.00
2018-09-21T01:57:32.518Z,6.50
2018-09-21T01:58:35.855Z,8.73
2018-09-21T01:59:39.270Z,6.90
2018-09-21T02:00:42.612Z,7.30
2018-09-21T02:01:45.915Z,7.35
2018-09-21T02:02:49.224Z,7.33
2018-09-21T02:03:52.750Z,7.15
2018-09-21T02:04:56.051Z,7.12
2018-09-21T02:05:59.355Z,7.85
2018-09-21T02:07:02.748Z,8.25
2018-09-21T02:08:06.058Z,8.45
2018-09-21T02:09:09.877Z,9.18
2018-09-21T02:10:13.210Z,8.48
2018-09-21T02:11:16.526Z,7.85
2018-09-21T02:12:19.843Z,7.45
2018-09-21T02:13:23.207Z,7.85
2018-09-21T02:14:26.536Z,8.18
2018-09-21T02:15:29.879Z,8.30
2018-09-21T02:16:33.219Z,8.50
2018-09-21T02:17:36.554Z,8.30
2018-09-21T02:18:39.899Z,7.72
2018-09-21T02:19:43.227Z,7.85
2018-09-21T02:20:46.551Z,7.75
2018-09-21T02:21:50.178Z,8.08
2018-09-21T02:22:53.514Z,8.20
2018-09-21T02:23:56.822Z,8.40
2018-09-21T02:25:00.175Z,7.33
2018-09-21T02:26:03.524Z,8.00
2018-09-21T02:27:06.876Z,7.40
2018-09-21T02:28:10.184Z,7.85
2018-09-21T02:29:13.494Z,8.30
2018-09-21T02:30:16.844Z,7.80
2018-09-21T02:31:20.184Z,7.62
2018-09-21T02:32:23.548Z,7.80
2018-09-21T02:33:26.887Z,6.83
2018-09-21T02:34:30.206Z,7.67
2018-09-21T02:35:33.554Z,6.95
2018-09-21T02:36:36.886Z,8.30
2018-09-21T02:37:40.200Z,8.20
2018-09-21T02:38:43.511Z,7.00
2018-09-21T02:39:46.859Z,6.72
2018-09-21T02:40:50.231Z,6.90
2018-09-21T02:41:53.567Z,7.55
2018-09-21T02:42:56.895Z,7.55
2018-09-21T02:44:00.265Z,7.95
2018-09-21T02:45:03.634Z,6.55
2018-09-21T02:46:06.957Z,6.60
2018-09-21T02:47:10.279Z,6.92
2018-09-21T02:48:13.607Z,6.95
2018-09-21T02:49:17.014Z,7.28
2018-09-21T02:50:20.384Z,7.65
2018-09-21T02:51:23.785Z,6.40
2018-09-21T02:52:27.099Z,7.03
2018-09-21T02:53:30.416Z,6.90
2018-09-21T02:54:33.744Z,7.65
2018-09-21T02:55:37.073Z,8.20
2018-09-21T02:56:41.129Z,7.20
2018-09-21T02:57:44.483Z,7.62
2018-09-21T02:58:47.865Z,7.92
2018-09-21T02:59:51.206Z,7.90
2018-09-21T03:00:54.606Z,7.70
2018-09-21T03:01:57.892Z,7.65
2018-09-21T03:03:01.213Z,7.97
2018-09-21T03:04:04.535Z,7.70
2018-09-21T03:05:07.860Z,7.97
2018-09-21T03:06:11.167Z,7.85
2018-09-21T03:07:14.558Z,7.67
2018-09-21T03:08:17.918Z,8.05
2018-09-21T03:09:21.226Z,7.30
2018-09-21T03:10:31.020Z,7.35
2018-09-21T03:11:34.342Z,6.90
2018-09-21T03:12:37.659Z,7.47
2018-09-21T03:13:41.108Z,8.05
2018-09-21T03:14:44.418Z,7.87
2018-09-21T03:15:47.779Z,7.10
2018-09-21T03:16:51.146Z,7.28
2018-09-21T03:17:54.473Z,8.28
2018-09-21T03:18:57.803Z,7.10
2018-09-21T03:20:01.123Z,7.42
2018-09-21T03:21:04.479Z,7.65
2018-09-21T03:22:07.795Z,6.75
2018-09-21T03:23:11.134Z,7.55
2018-09-21T03:24:14.492Z,6.62
2018-09-21T03:25:17.812Z,7.60
2018-09-21T03:26:21.147Z,7.35
2018-09-21T03:27:24.486Z,7.92
2018-09-21T03:28:27.813Z,6.80
2018-09-21T03:29:31.218Z,6.70
2018-09-21T03:30:34.531Z,7.58
2018-09-21T03:31:37.880Z,7.55
2018-09-21T03:32:41.198Z,7.33
2018-09-21T03:33:44.561Z,7.00
2018-09-21T03:34:48.016Z,7.37
2018-09-21T03:35:51.357Z,7.00
2018-09-21T03:36:54.736Z,7.35
2018-09-21T03:37:58.088Z,6.87
2018-09-21T03:39:01.426Z,7.53
2018-09-21T03:40:04.762Z,7.83
2018-09-21T03:41:08.118Z,7.78
2018-09-21T03:42:11.441Z,6.92
2018-09-21T03:43:14.871Z,8.38
2018-09-21T03:44:18.478Z,7.25
2018-09-21T03:45:21.804Z,7.42
2018-09-21T03:46:25.180Z,7.05
2018-09-21T03:47:28.520Z,7.12
2018-09-21T03:48:31.910Z,6.83
2018-09-21T03:49:35.261Z,7.37
2018-09-21T03:50:38.578Z,7.10
2018-09-21T03:51:41.914Z,6.83
2018-09-21T03:52:45.244Z,7.22
2018-09-21T03:53:48.559Z,7.42
2018-09-21T03:54:51.911Z,7.45
2018-09-21T03:55:55.227Z,7.65
2018-09-21T03:56:58.546Z,6.67
2018-09-21T03:58:01.872Z,7.10
2018-09-21T03:59:05.254Z,8.70
2018-09-21T04:00:08.996Z,7.40
2018-09-21T04:01:12.416Z,7.28
2018-09-21T04:02:15.683Z,7.40
2018-09-21T04:03:18.996Z,8.88
2018-09-21T04:04:22.351Z,8.60
2018-09-21T04:05:25.686Z,8.80
2018-09-21T04:06:29.024Z,8.08
2018-09-21T04:07:32.354Z,7.92
2018-09-21T04:08:35.708Z,7.45
2018-09-21T04:09:39.050Z,7.92
2018-09-21T04:10:42.363Z,7.37
2018-09-21T04:11:45.668Z,7.17
2018-09-21T04:12:48.972Z,7.70
2018-09-21T04:13:52.283Z,7.80
2018-09-21T04:14:55.624Z,7.10
2018-09-21T04:15:58.947Z,7.47
2018-09-21T04:17:02.275Z,7.20
2018-09-21T04:18:05.935Z,7.55
2018-09-21T04:19:09.282Z,7.05
2018-09-21T04:20:12.643Z,6.90
2018-09-21T04:21:15.953Z,7.72
2018-09-21T04:22:19.259Z,6.30
2018-09-21T04:23:22.595Z,7.05
2018-09-21T04:24:25.984Z,7.00
2018-09-21T04:25:29.460Z,6.80
2018-09-21T04:26:32.808Z,7.17
2018-09-21T04:27:36.115Z,7.20
2018-09-21T04:28:39.434Z,6.97
2018-09-21T04:29:42.818Z,7.05
2018-09-21T04:30:46.199Z,6.90
2018-09-21T04:31:49.514Z,7.12
2018-09-21T04:32:52.887Z,5.45
2018-09-21T04:33:56.213Z,6.30
2018-09-21T04:34:59.582Z,6.22
2018-09-21T04:36:02.978Z,6.28
2018-09-21T04:37:06.290Z,5.97
2018-09-21T04:38:09.597Z,7.17
2018-09-21T04:39:13.530Z,5.20
2018-09-21T04:40:16.890Z,6.33
2018-09-21T04:41:20.256Z,5.97
2018-09-21T04:42:23.588Z,6.30
2018-09-21T04:43:26.930Z,6.30
2018-09-21T04:44:30.253Z,5.65
2018-09-21T04:45:33.590Z,5.95
2018-09-21T04:46:37.023Z,6.60
2018-09-21T04:47:40.535Z,5.92
2018-09-21T04:48:43.863Z,6.20
2018-09-21T04:49:47.223Z,6.12
2018-09-21T04:50:50.587Z,5.13
2018-09-21T04:51:53.907Z,5.37
2018-09-21T04:52:57.231Z,6.22
2018-09-21T04:54:00.735Z,6.00
2018-09-21T04:55:04.111Z,6.25
2018-09-21T04:56:07.484Z,6.15
2018-09-21T04:57:10.806Z,6.40
2018-09-21T04:58:14.119Z,6.05
2018-09-21T04:59:17.514Z,6.65
2018-09-21T05:00:20.846Z,5.60
2018-09-21T05:01:24.361Z,6.00
2018-09-21T05:02:27.689Z,6.67
2018-09-21T05:03:31.019Z,6.70
2018-09-21T05:04:34.352Z,6.30
2018-09-21T05:05:37.724Z,6.08
2018-09-21T05:06:41.067Z,5.97
2018-09-21T05:07:44.428Z,6.10
2018-09-21T05:08:47.794Z,5.75
2018-09-21T05:09:51.137Z,6.17
2018-09-21T05:10:54.472Z,5.97
2018-09-21T05:11:57.798Z,5.85
2018-09-21T05:13:01.127Z,6.50
2018-09-21T05:14:04.635Z,5.87
2018-09-21T05:15:07.955Z,6.30
2018-09-21T05:16:11.304Z,5.80
2018-09-21T05:17:14.664Z,5.90
2018-09-21T05:18:17.999Z,6.00
2018-09-21T05:19:21.340Z,5.50
2018-09-21T05:20:24.715Z,6.37
2018-09-21T05:21:28.034Z,6.03
2018-09-21T05:22:31.376Z,5.50
2018-09-21T05:23:34.692Z,6.37
2018-09-21T05:24:38.027Z,5.30
2018-09-21T05:25:41.399Z,5.50
2018-09-21T05:26:44.752Z,5.60
2018-09-21T05:27:48.073Z,6.30
2018-09-21T05:28:51.413Z,6.60
2018-09-21T05:29:54.767Z,5.35
2018-09-21T05:30:58.459Z,5.87
2018-09-21T05:32:01.777Z,6.00
2018-09-21T05:33:05.088Z,6.00
2018-09-21T05:34:08.499Z,5.27
2018-09-21T05:35:11.881Z,6.00
2018-09-21T05:36:15.186Z,6.07
2018-09-21T05:37:18.546Z,6.37
2018-09-21T05:38:21.863Z,6.43
2018-09-21T05:39:25.180Z,5.87
2018-09-21T05:40:28.523Z,5.87
2018-09-21T05:41:31.859Z,6.77
2018-09-21T05:42:35.203Z,6.00
2018-09-21T05:43:38.526Z,5.20
2018-09-21T05:44:41.864Z,5.87
2018-09-21T05:45:45.223Z,5.77
2018-09-21T05:46:48.543Z,6.15
2018-09-21T05:47:51.864Z,6.08
2018-09-21T05:48:55.230Z,5.50
2018-09-21T05:49:58.604Z,5.47
2018-09-21T05:51:01.966Z,5.53
2018-09-21T05:52:05.304Z,5.93
2018-09-21T05:53:09.111Z,5.60
2018-09-21T05:54:12.436Z,5.40
2018-09-21T05:55:15.756Z,5.80
2018-09-21T05:56:19.130Z,5.83
2018-09-21T05:57:22.465Z,6.00
2018-09-21T05:58:25.770Z,5.50
2018-09-21T05:59:29.082Z,5.20
2018-09-21T06:00:32.411Z,6.55
2018-09-21T06:01:35.783Z,5.40
2018-09-21T06:02:39.197Z,5.70
2018-09-21T06:03:42.528Z,5.87
2018-09-21T06:04:45.882Z,5.80
2018-09-21T06:05:49.240Z,6.10
2018-09-21T06:06:52.555Z,6.00
2018-09-21T06:07:55.915Z,5.33
2018-09-21T06:08:59.299Z,6.90
2018-09-21T06:10:02.887Z,6.10
2018-09-21T06:11:06.211Z,5.53
2018-09-21T06:12:09.534Z,6.10
2018-09-21T06:13:12.866Z,5.77
2018-09-21T06:14:16.230Z,5.70
2018-09-21T06:15:19.556Z,5.93
2018-09-21T06:16:22.895Z,5.50
2018-09-21T06:17:26.219Z,5.70
2018-09-21T06:18:29.586Z,6.20
2018-09-21T06:19:32.950Z,4.93
2018-09-21T06:20:36.400Z,5.77
2018-09-21T06:21:39.718Z,5.10
2018-09-21T06:23:46.392Z,5.10
2018-09-21T06:24:49.701Z,6.03
2018-09-21T06:25:53.059Z,5.40
2018-09-21T06:26:56.417Z,4.90
2018-09-21T06:27:59.784Z,5.33
2018-09-21T06:29:03.124Z,5.03
2018-09-21T06:30:07.118Z,5.73
2018-09-21T06:31:10.436Z,4.70
2018-09-21T06:32:13.744Z,5.80
2018-09-21T06:33:17.155Z,5.47
2018-09-21T06:34:20.474Z,5.53
2018-09-21T06:35:23.791Z,5.43
2018-09-21T06:36:27.088Z,5.40
2018-09-21T06:37:30.403Z,5.00
2018-09-21T06:38:33.747Z,5.23
2018-09-21T06:39:37.088Z,5.00
2018-09-21T06:40:40.383Z,5.10
2018-09-21T06:41:43.703Z,5.30
2018-09-21T06:42:47.015Z,5.17
2018-09-21T06:43:50.323Z,5.40
2018-09-21T06:44:53.697Z,5.37
2018-09-21T06:45:57.021Z,5.13
2018-09-21T06:47:00.604Z,4.77
2018-09-21T06:48:03.942Z,5.00
2018-09-21T06:49:07.250Z,5.37
2018-09-21T06:50:10.564Z,5.63
2018-09-21T06:51:13.984Z,5.50
2018-09-21T06:52:17.398Z,5.83
2018-09-21T06:53:20.743Z,5.10
2018-09-21T06:54:24.158Z,6.03
2018-09-21T06:55:27.467Z,5.57
2018-09-21T06:56:30.788Z,5.43
2018-09-21T06:57:34.154Z,4.70
2018-09-21T06:58:37.477Z,6.00
2018-09-21T06:59:41.083Z,4.90
2018-09-21T07:00:44.463Z,5.53
2018-09-21T07:01:47.867Z,5.87
2018-09-21T07:02:51.095Z,4.97
2018-09-21T07:03:54.408Z,5.30
2018-09-21T07:05:03.082Z,5.73
2018-09-21T07:06:06.417Z,5.03
2018-09-21T07:07:09.723Z,5.13
2018-09-21T07:08:13.028Z,5.40
2018-09-21T07:09:16.363Z,5.70
2018-09-21T07:10:19.724Z,5.73
2018-09-21T07:11:23.057Z,6.10
2018-09-21T07:12:26.403Z,5.37
2018-09-21T07:13:29.802Z,4.90
2018-09-21T07:14:33.140Z,4.70
2018-09-21T07:15:36.463Z,4.90
2018-09-21T07:16:39.775Z,5.30
2018-09-21T07:17:43.087Z,5.17
2018-09-21T07:18:46.412Z,4.90
2018-09-21T07:20:59.366Z,5.20
2018-09-21T07:22:02.676Z,5.23
2018-09-21T07:23:05.990Z,5.37
2018-09-21T07:24:09.329Z,4.83
2018-09-21T07:25:12.644Z,5.30
2018-09-21T07:26:15.959Z,5.60
2018-09-21T07:27:19.372Z,5.37
2018-09-21T07:28:22.689Z,5.13
2018-09-21T07:29:26.026Z,5.47
2018-09-21T07:30:29.383Z,5.90
2018-09-21T07:31:32.722Z,5.00
2018-09-21T07:32:36.031Z,5.13
2018-09-21T07:33:39.385Z,4.70
2018-09-21T07:34:42.695Z,5.60
2018-09-21T07:35:46.029Z,5.40
2018-09-21T07:36:49.383Z,5.40
2018-09-21T07:37:53.043Z,5.93
2018-09-21T07:38:56.535Z,5.83
2018-09-21T07:39:59.863Z,6.00
2018-09-21T07:41:03.203Z,5.60
2018-09-21T07:42:06.564Z,5.13
2018-09-21T07:43:09.992Z,5.30
2018-09-21T07:44:13.319Z,5.63
2018-09-21T07:45:16.690Z,5.40
2018-09-21T07:46:26.735Z,5.00
2018-09-21T07:47:30.055Z,5.50
2018-09-21T07:48:33.392Z,5.00
2018-09-21T07:49:36.840Z,5.03
2018-09-21T07:50:40.251Z,5.00
2018-09-21T07:51:43.512Z,4.63
2018-09-21T07:52:46.843Z,5.43
2018-09-21T07:53:50.199Z,5.00
2018-09-21T07:54:53.568Z,5.70
2018-09-21T07:55:56.910Z,5.27
2018-09-21T07:57:00.643Z,5.73
2018-09-21T07:58:03.961Z,6.20
2018-09-21T07:59:07.608Z,4.77
2018-09-21T08:00:10.944Z,5.20
2018-09-21T08:01:14.269Z,6.47
2018-09-21T08:02:17.583Z,5.47
2018-09-21T08:03:20.923Z,5.00
2018-09-21T08:04:24.249Z,5.50
2018-09-21T08:05:27.776Z,6.13
2018-09-21T08:06:31.101Z,5.03
2018-09-21T08:07:34.431Z,5.67
2018-09-21T08:08:37.751Z,5.43
2018-09-21T08:09:41.111Z,5.20
2018-09-21T08:10:44.423Z,5.80
2018-09-21T08:11:47.739Z,5.20
2018-09-21T08:12:51.120Z,5.40
2018-09-21T08:13:54.419Z,5.57
2018-09-21T08:14:57.741Z,5.00
2018-09-21T08:16:01.055Z,5.20
2018-09-21T08:17:04.383Z,5.30
2018-09-21T08:18:07.748Z,5.67
2018-09-21T08:19:11.093Z,5.17
2018-09-21T08:20:14.421Z,5.30
2018-09-21T08:21:24.220Z,5.80
2018-09-21T08:22:27.596Z,4.73
2018-09-21T08:23:30.932Z,5.30
2018-09-21T08:24:34.263Z,5.30
2018-09-21T08:25:37.578Z,5.97
2018-09-21T08:26:40.967Z,4.90
2018-09-21T08:27:44.287Z,5.83
2018-09-21T08:28:47.605Z,5.20
2018-09-21T08:29:50.920Z,5.30
2018-09-21T08:30:54.230Z,6.17
2018-09-21T08:31:57.566Z,5.77
2018-09-21T08:33:00.935Z,5.70
2018-09-21T08:34:04.230Z,4.70
2018-09-21T08:35:07.570Z,5.60
2018-09-21T08:36:10.926Z,6.03
2018-09-21T08:37:15.104Z,5.27
2018-09-21T08:38:18.480Z,5.13
2018-09-21T08:39:21.850Z,5.60
2018-09-21T08:40:25.155Z,4.87
2018-09-21T08:41:28.466Z,5.70
2018-09-21T08:42:31.839Z,5.73
2018-09-21T08:43:35.158Z,5.03
2018-09-21T08:44:38.539Z,5.23
2018-09-21T08:45:41.890Z,5.43
2018-09-21T08:46:45.180Z,5.30
2018-09-21T08:47:48.491Z,5.10
2018-09-21T08:48:51.848Z,6.80
2018-09-21T08:49:55.314Z,4.80
2018-09-21T08:50:58.623Z,5.30
2018-09-21T08:52:01.942Z,5.53
2018-09-21T08:53:05.530Z,4.97
2018-09-21T08:54:08.895Z,5.33
2018-09-21T08:55:12.252Z,5.40
2018-09-21T08:56:15.578Z,5.63
2018-09-21T08:57:18.919Z,5.90
2018-09-21T08:58:22.255Z,6.30
2018-09-21T08:59:25.571Z,5.13
2018-09-21T09:00:28.909Z,5.77
2018-09-21T09:01:32.276Z,5.57
2018-09-21T09:02:35.639Z,5.87
2018-09-21T09:03:38.959Z,5.50
2018-09-21T09:04:42.283Z,5.57
2018-09-21T09:05:50.971Z,5.43
2018-09-21T09:06:54.309Z,5.20
2018-09-21T09:07:57.625Z,6.00
2018-09-21T09:09:00.971Z,6.37
2018-09-21T09:10:04.323Z,5.17
2018-09-21T09:11:07.636Z,5.43
2018-09-21T09:12:10.948Z,5.90
2018-09-21T09:13:14.264Z,6.13
2018-09-21T09:14:17.574Z,5.83
2018-09-21T09:15:20.919Z,6.13
2018-09-21T09:16:24.273Z,5.50
2018-09-21T09:17:27.590Z,5.23
2018-09-21T09:18:30.896Z,5.43
2018-09-21T09:19:34.251Z,5.60
2018-09-21T09:20:37.584Z,6.20
2018-09-21T09:21:40.906Z,5.60
2018-09-21T09:22:44.214Z,6.37
2018-09-21T09:23:47.560Z,5.47
2018-09-21T09:24:50.885Z,5.20
2018-09-21T09:25:54.201Z,5.30
2018-09-21T09:26:57.773Z,4.97
2018-09-21T09:28:01.097Z,5.33
2018-09-21T09:29:04.627Z,4.87
2018-09-21T09:30:08.042Z,5.87
2018-09-21T09:31:11.299Z,5.40
2018-09-21T09:32:14.619Z,5.47
2018-09-21T09:33:17.995Z,4.67
2018-09-21T09:34:21.337Z,5.10
2018-09-21T09:35:24.675Z,4.80
2018-09-21T09:36:27.987Z,6.20
2018-09-21T09:37:31.315Z,5.40
2018-09-21T09:38:34.660Z,4.40
2018-09-21T09:39:37.998Z,4.70
2018-09-21T09:40:41.352Z,5.47
2018-09-21T09:41:44.703Z,5.70
2018-09-21T09:42:48.101Z,4.37
2018-09-21T09:43:51.432Z,5.23
2018-09-21T09:44:54.758Z,6.03
2018-09-21T09:45:58.083Z,5.17
2018-09-21T09:47:01.432Z,5.40
2018-09-21T09:48:04.811Z,5.13
2018-09-21T09:49:08.152Z,5.30
2018-09-21T09:50:11.595Z,5.07
2018-09-21T09:51:14.918Z,4.47
2018-09-21T09:52:18.263Z,6.40
2018-09-21T09:53:21.656Z,5.30
2018-09-21T09:54:24.991Z,5.63
2018-09-21T09:55:28.328Z,6.30
2018-09-21T09:56:31.684Z,5.20
2018-09-21T09:57:35.008Z,5.40
2018-09-21T09:58:38.338Z,5.10
2018-09-21T09:59:41.663Z,5.17
2018-09-21T10:00:50.276Z,5.13
2018-09-21T10:01:53.628Z,4.77
2018-09-21T10:02:56.975Z,4.63
2018-09-21T10:04:00.388Z,5.00
2018-09-21T10:05:04.085Z,4.63
2018-09-21T10:06:07.399Z,5.30
2018-09-21T10:07:10.718Z,4.83
2018-09-21T10:08:14.359Z,5.27
2018-09-21T10:09:17.722Z,5.50
2018-09-21T10:10:21.089Z,5.57
2018-09-21T10:11:24.412Z,4.93
2018-09-21T10:12:34.460Z,5.83
2018-09-21T10:13:37.803Z,5.20
2018-09-21T10:14:41.114Z,5.53
2018-09-21T10:15:44.475Z,4.80
2018-09-21T10:16:47.789Z,5.43
2018-09-21T10:17:51.102Z,5.60
2018-09-21T10:18:54.432Z,4.90
2018-09-21T10:19:57.770Z,5.30
2018-09-21T10:21:01.073Z,4.83
2018-09-21T10:22:04.387Z,4.50
2018-09-21T10:23:07.735Z,5.43
2018-09-21T10:24:11.100Z,4.77
2018-09-21T10:25:14.408Z,4.57
2018-09-21T10:26:17.819Z,5.30
2018-09-21T10:27:21.265Z,5.00
2018-09-21T10:28:24.601Z,5.27
2018-09-21T10:29:27.805Z,4.40
2018-09-21T10:30:31.124Z,4.63
2018-09-21T10:31:34.447Z,5.30
2018-09-21T10:32:37.766Z,4.40
2018-09-21T10:33:41.213Z,4.63
2018-09-21T10:34:44.515Z,4.13
2018-09-21T10:35:47.840Z,4.50
2018-09-21T10:36:51.154Z,4.80
2018-09-21T10:38:01.253Z,4.70
2018-09-21T10:39:06.417Z,4.90
2018-09-21T10:40:09.752Z,5.73
2018-09-21T10:41:13.091Z,4.73
2018-09-21T10:42:16.423Z,4.50
2018-09-21T10:43:19.732Z,4.40
2018-09-21T10:44:23.073Z,3.70
2018-09-21T10:45:26.399Z,4.13
2018-09-21T10:46:29.731Z,3.83
2018-09-21T10:47:33.075Z,4.30
2018-09-21T10:48:36.471Z,4.67
2018-09-21T10:49:39.827Z,3.93
2018-09-21T10:50:43.188Z,3.90
2018-09-21T10:51:46.817Z,3.77
2018-09-21T10:52:50.173Z,3.63
2018-09-21T10:53:53.493Z,3.70
2018-09-21T10:54:57.142Z,4.30
2018-09-21T10:56:00.525Z,4.17
2018-09-21T10:57:03.843Z,4.10
2018-09-21T10:58:07.158Z,5.20
2018-09-21T10:59:10.540Z,3.83
2018-09-21T11:00:13.856Z,4.00
2018-09-21T11:01:17.223Z,3.90
2018-09-21T11:02:20.578Z,4.30
2018-09-21T11:03:24.011Z,4.17
2018-09-21T11:04:27.340Z,4.33
2018-09-21T11:05:30.715Z,3.70
2018-09-21T11:06:34.051Z,4.30
2018-09-21T11:07:37.419Z,4.20
2018-09-21T11:08:40.748Z,4.40
2018-09-21T11:09:44.068Z,3.23
2018-09-21T11:10:47.392Z,3.40
2018-09-21T11:11:50.741Z,4.37
2018-09-21T11:12:54.135Z,3.73
2018-09-21T11:13:57.433Z,3.87
2018-09-21T11:15:00.759Z,3.37
2018-09-21T11:16:04.183Z,3.80
2018-09-21T11:17:07.535Z,4.20
2018-09-21T11:18:10.859Z,4.50
2018-09-21T11:19:14.243Z,4.03
2018-09-21T11:20:17.628Z,4.50
2018-09-21T11:21:20.967Z,3.87
2018-09-21T11:22:24.436Z,3.93
2018-09-21T11:23:27.787Z,4.67
2018-09-21T11:24:31.122Z,3.83
2018-09-21T11:25:34.492Z,3.90
2018-09-21T11:26:37.818Z,3.60
2018-09-21T11:27:41.140Z,4.07
2018-09-21T11:28:44.490Z,3.70
2018-09-21T11:29:47.855Z,4.40
2018-09-21T11:30:51.203Z,3.97
2018-09-21T11:31:54.603Z,3.57
2018-09-21T11:32:57.942Z,3.90
2018-09-21T11:34:01.267Z,3.60
2018-09-21T11:35:04.634Z,3.73
2018-09-21T11:36:07.973Z,3.90
2018-09-21T11:37:11.285Z,3.97
2018-09-21T11:38:14.631Z,4.30
2018-09-21T11:39:17.968Z,3.80
2018-09-21T11:40:21.333Z,3.97
2018-09-21T11:41:24.687Z,4.17
2018-09-21T11:42:28.019Z,4.00
2018-09-21T11:43:31.324Z,5.00
2018-09-21T11:44:34.626Z,4.30
2018-09-21T11:45:37.975Z,4.17
2018-09-21T11:46:41.347Z,4.40
2018-09-21T11:47:44.689Z,3.87
2018-09-21T11:48:47.980Z,4.43
2018-09-21T11:49:51.301Z,3.90
2018-09-21T11:50:54.742Z,4.33
2018-09-21T11:51:58.076Z,4.10
2018-09-21T11:53:01.387Z,3.83
2018-09-21T11:54:04.707Z,4.30
2018-09-21T11:55:08.019Z,3.20
2018-09-21T11:56:11.375Z,2.60
2018-09-21T11:57:14.674Z,1.62
2018-09-21T11:58:18.007Z,2.80
2018-09-21T11:59:21.380Z,1.60
2018-09-21T12:00:24.723Z,2.30
2018-09-21T12:01:28.202Z,1.50
2018-09-21T12:02:31.553Z,1.72
2018-09-21T12:03:34.875Z,1.80
2018-09-21T12:04:38.183Z,1.80
2018-09-21T12:05:41.483Z,1.37
2018-09-21T12:06:44.827Z,1.50
2018-09-21T12:07:48.192Z,1.15
2018-09-21T12:08:51.500Z,1.30
2018-09-21T12:09:54.807Z,1.10
2018-09-21T12:10:58.106Z,1.25
2018-09-21T12:12:01.518Z,1.75
2018-09-21T12:13:04.846Z,1.20
2018-09-21T12:14:08.198Z,1.30
2018-09-21T12:15:11.566Z,1.60
2018-09-21T12:16:14.929Z,1.10
2018-09-21T12:17:18.290Z,1.45
2018-09-21T12:18:21.583Z,1.35
2018-09-21T12:19:24.927Z,1.20
2018-09-21T12:20:28.295Z,1.30
2018-09-21T12:21:31.624Z,1.10
2018-09-21T12:22:34.992Z,1.05
2018-09-21T12:23:38.267Z,0.90
2018-09-21T12:24:41.636Z,1.40
2018-09-21T12:25:44.970Z,1.30
2018-09-21T12:26:48.286Z,1.70
2018-09-21T12:27:51.617Z,1.20
2018-09-21T12:28:54.922Z,1.22
2018-09-21T12:29:58.262Z,1.60
2018-09-21T12:31:01.559Z,1.22
2018-09-21T12:32:04.866Z,1.10
2018-09-21T12:33:08.187Z,1.20
2018-09-21T12:34:11.490Z,1.27
2018-09-21T12:35:14.843Z,1.90
2018-09-21T12:36:18.166Z,1.15
2018-09-21T12:37:21.478Z,1.10
2018-09-21T12:38:24.777Z,1.30
2018-09-21T12:39:28.109Z,1.20
2018-09-21T12:40:31.474Z,1.30
2018-09-21T12:41:34.794Z,0.98
2018-09-21T12:42:38.196Z,1.15
2018-09-21T12:43:41.432Z,1.32
2018-09-21T12:44:44.776Z,1.50
2018-09-21T12:45:48.336Z,1.70
2018-09-21T12:46:51.687Z,0.95
2018-09-21T12:47:55.080Z,1.10
2018-09-21T12:49:00.579Z,1.45
2018-09-21T12:50:03.891Z,0.90
2018-09-21T12:51:07.200Z,1.75
2018-09-21T12:52:10.543Z,1.05
2018-09-21T12:53:13.887Z,0.95
2018-09-21T12:54:17.191Z,1.25
2018-09-21T12:55:20.527Z,1.98
2018-09-21T12:56:24.277Z,1.37
2018-09-21T12:57:27.774Z,1.10
2018-09-21T12:58:31.260Z,1.15
2018-09-21T12:59:34.427Z,1.60
2018-09-21T13:00:43.208Z,1.05
2018-09-21T13:01:46.511Z,1.42
2018-09-21T13:02:49.822Z,1.00
2018-09-21T13:03:53.119Z,1.40
2018-09-21T13:04:56.419Z,1.55
2018-09-21T13:05:59.801Z,1.45
2018-09-21T13:07:03.151Z,1.30
2018-09-21T13:08:06.562Z,1.67
2018-09-21T13:09:09.896Z,1.27
2018-09-21T13:10:13.220Z,1.60
2018-09-21T13:11:16.700Z,1.67
2018-09-21T13:12:20.048Z,1.05
2018-09-21T13:13:23.398Z,1.80
2018-09-21T13:14:26.762Z,1.42
2018-09-21T13:15:30.134Z,1.60
2018-09-21T13:16:33.500Z,1.62
2018-09-21T13:17:36.819Z,1.00
2018-09-21T13:18:40.130Z,1.25
2018-09-21T13:19:43.452Z,1.22
2018-09-21T13:20:46.775Z,1.42
2018-09-21T13:21:50.147Z,1.15
2018-09-21T13:22:53.471Z,1.30
2018-09-21T13:23:56.867Z,1.15
2018-09-21T13:25:00.192Z,1.47
2018-09-21T13:26:03.607Z,1.00
2018-09-21T13:27:06.977Z,1.40
2018-09-21T13:28:10.297Z,1.15
2018-09-21T13:29:13.961Z,1.20
2018-09-21T13:30:17.281Z,1.10
2018-09-21T13:31:20.662Z,1.17
2018-09-21T13:32:24.072Z,1.00
2018-09-21T13:33:27.347Z,1.17
2018-09-21T13:34:30.679Z,1.22
2018-09-21T13:35:34.003Z,1.05
2018-09-21T13:36:37.359Z,1.30
2018-09-21T13:37:40.694Z,1.20
2018-09-21T13:38:44.014Z,1.10
2018-09-21T13:39:47.338Z,0.82
2018-09-21T13:40:50.646Z,1.20
2018-09-21T13:41:54.001Z,1.10
2018-09-21T13:42:57.337Z,1.60
2018-09-21T13:44:00.659Z,1.32
2018-09-21T13:45:04.375Z,1.10
2018-09-21T13:46:07.738Z,1.55
2018-09-21T13:47:11.050Z,1.00
2018-09-21T13:48:14.362Z,1.30
2018-09-21T13:49:17.727Z,1.27
2018-09-21T13:50:21.280Z,1.70
2018-09-21T13:51:24.696Z,1.20
2018-09-21T13:52:28.011Z,1.67
2018-09-21T13:53:31.328Z,1.77
2018-09-21T13:54:34.648Z,1.22
2018-09-21T13:55:37.968Z,1.50
2018-09-21T13:56:41.311Z,1.62
2018-09-21T13:57:44.626Z,1.50
2018-09-21T13:58:48.310Z,1.75
2018-09-21T13:59:51.627Z,1.52
2018-09-21T14:00:54.956Z,2.30
2018-09-21T14:01:58.294Z,1.45
2018-09-21T14:03:01.614Z,1.20
2018-09-21T14:04:04.956Z,1.32
2018-09-21T14:05:08.392Z,1.35
2018-09-21T14:06:11.714Z,1.37